KPHF/PHF METAR and TAF weather

Enter ICAO airport designator
Station Type Date Time Source
KPHF METAR 2019/06/16 03:54 UTC NOAA

KPHF 160354Z AUTO 20008KT 10SM CLR 22/16 A3008 RMK AO2 SLP185 T02170161


Station Type Date Time Source
KPHF Decoded METAR 2019/06/16 03:54 UTC NOAA

WILLIAMSBURG INTERNATIONAL AIRPORT , VA, United States (KPHF) 37-08N 76-30W 12M
Jun 15, 2019 - 11:54 PM EDT / 2019.06.16 0354 UTC
Wind: from the SSW (200 degrees) at 9 MPH (8 KT):0
Visibility: 10 mile(s):0
Sky conditions: clear
Temperature: 71.1 F (21.7 C)
Dew Point: 61.0 F (16.1 C)
Relative Humidity: 70%
Pressure (altimeter): 30.08 in. Hg (1018 hPa)
ob: KPHF 160354Z AUTO 20008KT 10SM CLR 22/16 A3008 RMK AO2 SLP185 T02170161
cycle: 4

Station Type Date Time Source
KPHF TAF 2019/06/15 18:22 UTC NOAA

TAF KPHF 151720Z 1518/1618 22011G20KT P6SM SKC
FM152200 VRB05KT P6SM SKC

Example: see airport list